createdAt,value
2022-12-11T00:01:09.338Z,20.87
2022-12-11T00:02:11.016Z,20.87
2022-12-11T00:03:15.799Z,21.40
2022-12-11T00:04:17.685Z,22.53
2022-12-11T00:05:19.361Z,22.30
2022-12-11T00:06:23.344Z,24.77
2022-12-11T00:07:25.164Z,21.20
2022-12-11T00:08:26.846Z,21.17
2022-12-11T00:09:29.063Z,20.53
2022-12-11T00:10:34.658Z,21.27
2022-12-11T00:11:39.368Z,22.30
2022-12-11T00:12:41.132Z,25.47
2022-12-11T00:13:42.969Z,20.37
2022-12-11T00:14:44.739Z,21.77
2022-12-11T00:15:46.428Z,22.77
2022-12-11T00:16:49.595Z,21.10
2022-12-11T00:17:51.341Z,24.60
2022-12-11T00:18:53.062Z,23.33
2022-12-11T00:19:54.885Z,23.83
2022-12-11T00:21:01.563Z,22.30
2022-12-11T00:22:03.561Z,23.90
2022-12-11T00:23:05.518Z,21.10
2022-12-11T00:24:07.427Z,23.30
2022-12-11T00:25:09.766Z,21.43
2022-12-11T00:26:15.957Z,24.70
2022-12-11T00:27:17.728Z,22.03
2022-12-11T00:28:19.509Z,20.17
2022-12-11T00:29:21.207Z,23.50
2022-12-11T00:30:23.080Z,20.73
2022-12-11T00:31:25.216Z,21.73
2022-12-11T00:32:28.562Z,21.37
2022-12-11T00:33:30.608Z,22.67
2022-12-11T00:34:32.360Z,24.27
2022-12-11T00:35:34.103Z,21.63
2022-12-11T00:36:35.898Z,22.50
2022-12-11T00:37:37.696Z,23.07
2022-12-11T00:38:39.614Z,23.27
2022-12-11T00:39:41.341Z,20.83
2022-12-11T00:40:43.746Z,23.63
2022-12-11T00:41:45.477Z,23.80
2022-12-11T00:42:47.120Z,23.97
2022-12-11T00:43:48.829Z,23.87
2022-12-11T00:44:51.268Z,22.80
2022-12-11T00:45:53.033Z,21.40
2022-12-11T00:46:54.813Z,24.80
2022-12-11T00:47:56.512Z,23.57
2022-12-11T00:48:58.894Z,25.23
2022-12-11T00:50:00.598Z,26.20
2022-12-11T00:51:02.296Z,24.00
2022-12-11T00:52:04.024Z,23.50
2022-12-11T00:53:06.720Z,21.83
2022-12-11T00:54:08.435Z,23.83
2022-12-11T00:55:10.830Z,22.63
2022-12-11T00:56:15.543Z,23.57
2022-12-11T00:57:17.320Z,23.87
2022-12-11T00:58:19.345Z,23.13
2022-12-11T00:59:21.041Z,21.53
2022-12-11T01:00:23.317Z,23.37
2022-12-11T01:01:25.925Z,20.47
2022-12-11T01:02:27.813Z,21.80
2022-12-11T01:03:29.585Z,21.37
2022-12-11T01:04:31.254Z,22.63
2022-12-11T01:05:33.797Z,20.27
2022-12-11T01:06:35.507Z,26.07
2022-12-11T01:07:37.255Z,24.23
2022-12-11T01:08:39.057Z,21.50
2022-12-11T01:09:59.557Z,20.83
2022-12-11T01:11:03.591Z,22.20
2022-12-11T01:12:05.507Z,21.23
2022-12-11T01:13:07.395Z,21.77
2022-12-11T01:14:10.985Z,19.23
2022-12-11T01:15:13.042Z,20.47
2022-12-11T01:16:16.172Z,20.47
2022-12-11T01:17:17.912Z,21.80
2022-12-11T01:18:19.717Z,19.80
2022-12-11T01:19:21.436Z,19.57
2022-12-11T01:20:24.402Z,19.73
2022-12-11T01:21:26.814Z,21.83
2022-12-11T01:22:28.489Z,22.43
2022-12-11T01:23:30.214Z,20.23
2022-12-11T01:24:32.221Z,20.53
2022-12-11T01:25:38.155Z,23.00
2022-12-11T01:26:39.907Z,22.37
2022-12-11T01:27:41.586Z,20.93
2022-12-11T01:28:44.511Z,19.00
2022-12-11T01:29:46.238Z,18.70
2022-12-11T01:30:47.998Z,21.43
2022-12-11T01:31:49.777Z,22.10
2022-12-11T01:32:51.534Z,21.80
2022-12-11T01:33:56.737Z,21.77
2022-12-11T01:34:58.429Z,21.33
2022-12-11T01:36:00.184Z,17.73
2022-12-11T01:37:01.822Z,21.90
2022-12-11T01:38:03.531Z,21.40
2022-12-11T01:39:05.370Z,21.47
2022-12-11T01:40:08.717Z,23.07
2022-12-11T01:41:10.850Z,21.70
2022-12-11T01:42:18.518Z,21.50
2022-12-11T01:43:20.254Z,22.53
2022-12-11T01:44:21.922Z,20.60
2022-12-11T01:45:50.182Z,21.47
2022-12-11T01:46:51.922Z,21.03
2022-12-11T01:48:12.684Z,22.23
2022-12-11T01:49:17.441Z,20.80
2022-12-11T01:50:20.037Z,20.23
2022-12-11T01:51:23.029Z,19.93
2022-12-11T01:52:25.154Z,19.90
2022-12-11T01:53:34.304Z,21.33
2022-12-11T01:54:36.312Z,21.53
2022-12-11T01:55:39.826Z,20.50
2022-12-11T01:56:43.829Z,21.20
2022-12-11T01:57:49.107Z,21.07
2022-12-11T01:58:55.703Z,24.20
2022-12-11T01:59:57.576Z,19.97
2022-12-11T02:01:00.197Z,20.53
2022-12-11T02:02:10.047Z,22.37
2022-12-11T02:03:11.806Z,22.93
2022-12-11T02:04:15.264Z,19.37
2022-12-11T02:05:17.223Z,23.13
2022-12-11T02:06:38.074Z,21.63
2022-12-11T02:07:58.374Z,22.30
2022-12-11T02:09:00.772Z,20.80
2022-12-11T02:10:02.903Z,22.87
2022-12-11T02:11:20.875Z,22.27
2022-12-11T02:12:34.846Z,19.63
2022-12-11T02:13:46.784Z,21.27
2022-12-11T02:14:51.113Z,21.87
2022-12-11T02:16:09.701Z,21.67
2022-12-11T02:17:21.693Z,22.30
2022-12-11T02:19:02.762Z,21.00
2022-12-11T02:20:17.488Z,22.40
2022-12-11T02:21:35.228Z,24.13
2022-12-11T02:23:11.911Z,20.93
2022-12-11T02:24:25.281Z,21.00
2022-12-11T02:25:53.108Z,22.73
2022-12-11T02:27:28.910Z,22.33
2022-12-11T02:28:33.343Z,20.33
2022-12-11T02:30:05.374Z,21.10
2022-12-11T02:31:16.228Z,21.13
2022-12-11T02:32:25.796Z,21.00
2022-12-11T02:33:37.153Z,24.03
2022-12-11T02:34:49.365Z,21.60
2022-12-11T02:35:51.197Z,22.43
2022-12-11T02:36:58.179Z,22.67
2022-12-11T02:38:05.910Z,20.70
2022-12-11T02:39:12.277Z,23.23
2022-12-11T02:40:19.233Z,21.07
2022-12-11T02:41:22.788Z,20.57
2022-12-11T02:42:31.280Z,20.13
2022-12-11T02:43:35.321Z,22.93
2022-12-11T02:44:38.247Z,20.20
2022-12-11T02:45:43.421Z,20.67
2022-12-11T02:46:45.679Z,21.00
2022-12-11T02:47:49.411Z,22.50
2022-12-11T02:48:52.862Z,20.43
2022-12-11T02:49:56.757Z,19.90
2022-12-11T02:51:00.737Z,21.83
2022-12-11T02:52:05.074Z,19.17
2022-12-11T02:53:07.933Z,22.77
2022-12-11T02:54:16.571Z,20.23
2022-12-11T02:55:19.761Z,21.30
2022-12-11T02:56:34.053Z,23.70
2022-12-11T02:57:50.084Z,21.27
2022-12-11T02:58:59.714Z,21.33
2022-12-11T03:00:02.014Z,22.73
2022-12-11T03:01:04.342Z,21.33
2022-12-11T03:02:06.767Z,21.87
2022-12-11T03:03:08.537Z,21.47
2022-12-11T03:04:10.251Z,22.77
2022-12-11T03:05:13.644Z,20.53
2022-12-11T03:06:20.144Z,23.27
2022-12-11T03:07:25.941Z,22.13
2022-12-11T03:08:27.756Z,22.03
2022-12-11T03:09:29.471Z,21.80
2022-12-11T03:10:31.216Z,21.13
2022-12-11T03:11:32.872Z,20.63
2022-12-11T03:12:38.352Z,22.47
2022-12-11T03:13:42.526Z,20.50
2022-12-11T03:14:44.786Z,20.87
2022-12-11T03:16:20.559Z,20.33
2022-12-11T03:17:42.552Z,19.60
2022-12-11T03:19:04.440Z,21.57
2022-12-11T03:20:09.848Z,20.67
2022-12-11T03:21:49.010Z,20.07
2022-12-11T03:22:54.423Z,20.07
2022-12-11T03:24:17.467Z,21.10
2022-12-11T03:25:25.164Z,19.47
2022-12-11T03:26:28.162Z,21.80
2022-12-11T03:27:38.618Z,19.70
2022-12-11T03:28:55.778Z,21.87
2022-12-11T03:30:04.663Z,20.77
2022-12-11T03:31:12.875Z,19.07
2022-12-11T03:32:20.004Z,19.47
2022-12-11T03:33:33.421Z,20.47
2022-12-11T03:34:58.554Z,20.17
2022-12-11T03:36:12.709Z,19.47
2022-12-11T03:37:15.494Z,19.17
2022-12-11T03:38:28.095Z,19.53
2022-12-11T03:39:33.635Z,20.90
2022-12-11T03:40:36.076Z,20.10
2022-12-11T03:41:39.785Z,20.17
2022-12-11T03:42:44.410Z,21.83
2022-12-11T03:43:46.688Z,20.07
2022-12-11T03:44:51.354Z,20.90
2022-12-11T03:45:54.466Z,21.93
2022-12-11T03:46:58.547Z,20.20
2022-12-11T03:48:02.876Z,20.93
2022-12-11T03:49:27.754Z,18.83
2022-12-11T03:50:32.146Z,21.63
2022-12-11T03:51:35.664Z,19.87
2022-12-11T03:52:45.335Z,20.00
2022-12-11T03:53:48.180Z,17.63
2022-12-11T03:54:50.960Z,17.93
2022-12-11T03:55:54.120Z,19.37
2022-12-11T03:56:57.936Z,20.27
2022-12-11T03:57:59.672Z,20.93
2022-12-11T03:59:01.551Z,20.50
2022-12-11T04:00:09.376Z,18.43
2022-12-11T04:01:11.985Z,18.43
2022-12-11T04:02:13.619Z,17.63
2022-12-11T04:03:16.382Z,17.73
2022-12-11T04:04:18.275Z,17.30
2022-12-11T04:05:19.970Z,18.30
2022-12-11T04:06:21.743Z,18.50
2022-12-11T04:07:23.386Z,16.83
2022-12-11T04:08:25.431Z,17.27
2022-12-11T04:09:27.251Z,15.73
2022-12-11T04:10:29.068Z,15.50
2022-12-11T04:11:36.857Z,18.67
2022-12-11T04:12:38.654Z,15.53
2022-12-11T04:13:41.463Z,16.00
2022-12-11T04:15:01.739Z,17.37
2022-12-11T04:16:03.497Z,17.17
2022-12-11T04:17:05.720Z,17.17
2022-12-11T04:18:27.052Z,15.80
2022-12-11T04:19:47.644Z,14.57
2022-12-11T04:21:08.170Z,14.07
2022-12-11T04:22:33.177Z,15.80
2022-12-11T04:23:53.613Z,15.17
2022-12-11T04:24:55.361Z,15.43
2022-12-11T04:26:12.537Z,15.83
2022-12-11T04:27:14.246Z,16.63
2022-12-11T04:28:16.305Z,17.53
2022-12-11T04:29:18.028Z,16.07
2022-12-11T04:30:28.016Z,15.57
2022-12-11T04:31:32.647Z,15.70
2022-12-11T04:32:34.463Z,15.57
2022-12-11T04:33:36.132Z,16.47
2022-12-11T04:34:37.865Z,15.57
2022-12-11T04:35:39.604Z,16.43
2022-12-11T04:36:41.345Z,16.93
2022-12-11T04:37:43.072Z,14.37
2022-12-11T04:38:44.780Z,17.63
2022-12-11T04:39:46.450Z,16.27
2022-12-11T04:40:48.187Z,16.53
2022-12-11T04:41:49.897Z,15.67
2022-12-11T04:42:51.590Z,13.57
2022-12-11T04:43:53.355Z,16.80
2022-12-11T04:44:55.074Z,15.60
2022-12-11T04:46:06.555Z,17.80
2022-12-11T04:47:08.267Z,16.77
2022-12-11T04:48:09.988Z,16.17
2022-12-11T04:49:12.584Z,17.03
2022-12-11T04:50:15.658Z,18.57
2022-12-11T04:51:18.652Z,15.50
2022-12-11T04:52:20.390Z,15.40
2022-12-11T04:53:22.210Z,16.73
2022-12-11T04:54:24.083Z,17.00
2022-12-11T04:55:25.822Z,16.63
2022-12-11T04:56:27.501Z,16.53
2022-12-11T04:57:29.163Z,15.97
2022-12-11T04:58:30.846Z,14.47
2022-12-11T04:59:33.560Z,16.20
2022-12-11T05:00:35.262Z,17.33
2022-12-11T05:01:37.381Z,20.30
2022-12-11T05:02:41.353Z,16.30
2022-12-11T05:03:43.226Z,16.37
2022-12-11T05:04:44.947Z,16.07
2022-12-11T05:05:53.832Z,15.43
2022-12-11T05:06:55.501Z,14.80
2022-12-11T05:07:57.462Z,15.33
2022-12-11T05:08:59.208Z,15.97
2022-12-11T05:10:00.958Z,14.93
2022-12-11T05:11:05.911Z,17.37
2022-12-11T05:12:07.557Z,15.50
2022-12-11T05:13:09.297Z,15.23
2022-12-11T05:14:10.991Z,16.97
2022-12-11T05:15:12.873Z,16.47
2022-12-11T05:16:16.750Z,17.60
2022-12-11T05:17:18.825Z,17.13
2022-12-11T05:18:20.713Z,17.87
2022-12-11T05:19:22.372Z,16.77
2022-12-11T05:20:24.115Z,15.17
2022-12-11T05:21:30.259Z,16.33
2022-12-11T05:22:35.098Z,15.90
2022-12-11T05:23:37.478Z,14.73
2022-12-11T05:24:39.351Z,14.37
2022-12-11T05:25:41.016Z,15.37
2022-12-11T05:26:42.686Z,14.00
2022-12-11T05:27:44.335Z,14.63
2022-12-11T05:28:47.041Z,13.27
2022-12-11T05:29:48.808Z,12.53
2022-12-11T05:30:56.782Z,14.40
2022-12-11T05:31:58.875Z,13.80
2022-12-11T05:33:00.574Z,14.90
2022-12-11T05:34:02.318Z,13.97
2022-12-11T05:35:04.249Z,13.33
2022-12-11T05:36:07.494Z,13.73
2022-12-11T05:37:09.518Z,13.70
2022-12-11T05:38:11.265Z,15.57
2022-12-11T05:39:13.339Z,14.50
2022-12-11T05:40:15.355Z,14.60
2022-12-11T05:41:20.310Z,13.80
2022-12-11T05:42:27.143Z,13.30
2022-12-11T05:43:33.343Z,14.93
2022-12-11T05:44:35.147Z,13.90
2022-12-11T05:45:37.008Z,15.57
2022-12-11T05:46:39.015Z,15.13
2022-12-11T05:47:40.737Z,15.50
2022-12-11T05:48:43.921Z,14.67
2022-12-11T05:49:45.890Z,13.93
2022-12-11T05:51:01.151Z,14.33
2022-12-11T05:52:02.802Z,16.17
2022-12-11T05:53:05.275Z,15.10
2022-12-11T05:54:07.116Z,14.43
2022-12-11T05:55:09.703Z,14.80
2022-12-11T05:56:13.001Z,16.13
2022-12-11T05:57:14.760Z,15.37
2022-12-11T05:58:16.462Z,13.90
2022-12-11T05:59:19.684Z,15.33
2022-12-11T06:00:21.315Z,16.33
2022-12-11T06:01:34.974Z,14.03
2022-12-11T06:02:36.897Z,15.30
2022-12-11T06:03:38.845Z,15.93
2022-12-11T06:04:40.557Z,14.07
2022-12-11T06:05:42.566Z,14.63
2022-12-11T06:06:44.364Z,14.70
2022-12-11T06:07:46.073Z,17.17
2022-12-11T06:08:54.034Z,15.97
2022-12-11T06:09:55.747Z,17.50
2022-12-11T06:10:57.846Z,15.80
2022-12-11T06:11:59.599Z,15.57
2022-12-11T06:13:01.746Z,15.67
2022-12-11T06:14:04.163Z,14.13
2022-12-11T06:15:06.430Z,16.10
2022-12-11T06:16:10.115Z,17.03
2022-12-11T06:17:11.943Z,15.43
2022-12-11T06:18:13.617Z,16.40
2022-12-11T06:19:17.917Z,15.33
2022-12-11T06:20:19.595Z,16.63
2022-12-11T06:21:34.692Z,17.63
2022-12-11T06:22:36.348Z,17.23
2022-12-11T06:23:38.019Z,15.30
2022-12-11T06:24:39.823Z,16.40
2022-12-11T06:25:41.574Z,15.73
2022-12-11T06:26:43.307Z,14.80
2022-12-11T06:27:45.049Z,16.77
2022-12-11T06:28:47.469Z,15.37
2022-12-11T06:29:51.059Z,17.07
2022-12-11T06:30:52.745Z,16.57
2022-12-11T06:31:54.810Z,15.67
2022-12-11T06:32:58.681Z,15.80
2022-12-11T06:34:00.360Z,14.63
2022-12-11T06:35:02.003Z,16.60
2022-12-11T06:36:24.195Z,14.63
2022-12-11T06:37:25.858Z,15.27
2022-12-11T06:38:27.708Z,17.00
2022-12-11T06:39:29.393Z,16.60
2022-12-11T06:40:31.071Z,14.53
2022-12-11T06:41:32.768Z,13.53
2022-12-11T06:42:36.066Z,18.10
2022-12-11T06:43:40.369Z,17.73
2022-12-11T06:44:42.229Z,16.40
2022-12-11T06:45:43.980Z,13.90
2022-12-11T06:46:45.694Z,17.83
2022-12-11T06:47:47.390Z,18.23
2022-12-11T06:48:49.951Z,20.53
2022-12-11T06:49:51.633Z,19.60
2022-12-11T06:50:53.277Z,19.70
2022-12-11T06:51:55.012Z,20.60
2022-12-11T06:52:57.360Z,22.40
2022-12-11T06:53:59.318Z,19.83
2022-12-11T06:55:00.950Z,19.20
2022-12-11T06:56:11.025Z,18.93
2022-12-11T06:57:12.733Z,19.43
2022-12-11T06:58:14.447Z,17.87
2022-12-11T06:59:16.224Z,16.63
2022-12-11T07:00:17.959Z,17.27
2022-12-11T07:01:25.255Z,17.47
2022-12-11T07:02:27.128Z,18.23
2022-12-11T07:03:29.242Z,16.57
2022-12-11T07:04:31.465Z,16.57
2022-12-11T07:05:33.909Z,15.13
2022-12-11T07:06:35.612Z,16.47
2022-12-11T07:07:37.306Z,16.27
2022-12-11T07:08:39.007Z,16.90
2022-12-11T07:09:41.116Z,18.03
2022-12-11T07:10:42.862Z,17.07
2022-12-11T07:11:44.561Z,18.43
2022-12-11T07:12:46.299Z,18.63
2022-12-11T07:13:48.717Z,15.83
2022-12-11T07:14:50.448Z,15.10
2022-12-11T07:15:52.140Z,17.60
2022-12-11T07:16:54.063Z,15.83
2022-12-11T07:17:55.814Z,15.93
2022-12-11T07:18:57.467Z,16.90
2022-12-11T07:19:59.207Z,15.57
2022-12-11T07:21:01.107Z,19.07
2022-12-11T07:22:02.771Z,17.13
2022-12-11T07:23:04.554Z,20.80
2022-12-11T07:24:06.808Z,19.43
2022-12-11T07:25:09.274Z,18.43
2022-12-11T07:26:14.485Z,18.80
2022-12-11T07:27:16.233Z,16.73
2022-12-11T07:28:17.956Z,16.60
2022-12-11T07:29:19.726Z,17.53
2022-12-11T07:30:21.448Z,20.10
2022-12-11T07:31:25.017Z,18.33
2022-12-11T07:32:26.959Z,17.73
2022-12-11T07:33:28.734Z,19.70
2022-12-11T07:34:30.423Z,18.30
2022-12-11T07:35:34.772Z,17.23
2022-12-11T07:36:36.651Z,16.60
2022-12-11T07:37:41.176Z,17.37
2022-12-11T07:38:42.910Z,18.93
2022-12-11T07:39:44.561Z,20.93
2022-12-11T07:40:46.219Z,19.80
2022-12-11T07:41:48.053Z,20.20
2022-12-11T07:42:49.704Z,18.93
2022-12-11T07:43:51.383Z,19.47
2022-12-11T07:44:53.290Z,18.23
2022-12-11T07:45:55.322Z,20.33
2022-12-11T07:46:58.456Z,19.73
2022-12-11T07:48:00.167Z,19.13
2022-12-11T07:49:02.910Z,18.63
2022-12-11T07:50:04.958Z,19.80
2022-12-11T07:51:15.157Z,19.80
2022-12-11T07:52:16.931Z,20.33
2022-12-11T07:53:18.668Z,18.43
2022-12-11T07:54:21.063Z,17.83
2022-12-11T07:55:22.772Z,17.37
2022-12-11T07:56:24.831Z,17.63
2022-12-11T07:57:27.572Z,16.67
2022-12-11T07:58:29.778Z,18.60
2022-12-11T07:59:31.536Z,17.83
2022-12-11T08:00:33.231Z,18.80
2022-12-11T08:01:36.808Z,19.43
2022-12-11T08:02:38.608Z,19.13
2022-12-11T08:03:40.672Z,18.00
2022-12-11T08:04:42.435Z,19.47
2022-12-11T08:05:51.269Z,18.60
2022-12-11T08:06:53.039Z,20.17
2022-12-11T08:07:54.913Z,21.93
2022-12-11T08:08:57.808Z,18.93
2022-12-11T08:09:59.479Z,22.00
2022-12-11T08:11:02.300Z,22.07
2022-12-11T08:12:04.195Z,19.57
2022-12-11T08:13:05.867Z,20.10
2022-12-11T08:14:08.779Z,17.17
2022-12-11T08:15:11.057Z,19.40
2022-12-11T08:16:15.306Z,21.07
2022-12-11T08:17:17.101Z,20.73
2022-12-11T08:18:18.829Z,19.90
2022-12-11T08:19:20.520Z,22.10
2022-12-11T08:20:22.243Z,20.27
2022-12-11T08:21:26.205Z,19.70
2022-12-11T08:22:27.920Z,19.53
2022-12-11T08:23:29.583Z,19.30
2022-12-11T08:24:31.406Z,20.53
2022-12-11T08:25:33.116Z,20.73
2022-12-11T08:26:34.874Z,20.63
2022-12-11T08:27:36.524Z,20.50
2022-12-11T08:28:38.414Z,19.80
2022-12-11T08:29:40.263Z,19.93
2022-12-11T08:30:42.040Z,19.27
2022-12-11T08:31:43.875Z,20.90
2022-12-11T08:32:45.578Z,19.67
2022-12-11T08:33:48.382Z,18.00
2022-12-11T08:34:51.638Z,21.43
2022-12-11T08:35:53.375Z,19.57
2022-12-11T08:36:55.028Z,21.43
2022-12-11T08:37:56.692Z,20.77
2022-12-11T08:38:58.718Z,20.93
2022-12-11T08:40:00.523Z,20.47
2022-12-11T08:41:22.699Z,22.60
2022-12-11T08:42:24.501Z,21.20
2022-12-11T08:43:26.177Z,21.23
2022-12-11T08:44:28.294Z,22.83
2022-12-11T08:45:30.129Z,21.23
2022-12-11T08:46:32.672Z,18.90
2022-12-11T08:47:34.565Z,17.93
2022-12-11T08:48:38.255Z,20.90
2022-12-11T08:49:39.995Z,17.97
2022-12-11T08:50:42.543Z,21.37
2022-12-11T08:51:44.190Z,23.10
2022-12-11T08:52:45.904Z,19.93
2022-12-11T08:53:47.615Z,22.10
2022-12-11T08:54:49.403Z,21.50
2022-12-11T08:55:51.075Z,21.13
2022-12-11T08:56:57.805Z,19.53
2022-12-11T08:58:00.364Z,20.40
2022-12-11T08:59:02.823Z,19.70
2022-12-11T09:00:05.055Z,20.03
2022-12-11T09:01:24.725Z,19.20
2022-12-11T09:02:26.782Z,21.27
2022-12-11T09:03:28.679Z,21.13
2022-12-11T09:04:30.407Z,21.87
2022-12-11T09:05:32.519Z,19.90
2022-12-11T09:06:34.431Z,20.37
2022-12-11T09:07:38.658Z,17.70
2022-12-11T09:08:41.085Z,20.63
2022-12-11T09:09:42.841Z,19.73
2022-12-11T09:10:44.781Z,19.17
2022-12-11T09:11:46.521Z,18.03
2022-12-11T09:12:48.255Z,19.53
2022-12-11T09:13:50.075Z,17.93
2022-12-11T09:14:51.780Z,20.47
2022-12-11T09:15:53.501Z,18.77
2022-12-11T09:16:55.701Z,18.67
2022-12-11T09:17:57.411Z,19.27
2022-12-11T09:19:00.316Z,21.80
2022-12-11T09:20:02.258Z,21.13
2022-12-11T09:21:06.490Z,20.90
2022-12-11T09:22:11.154Z,22.70
2022-12-11T09:23:12.966Z,19.20
2022-12-11T09:24:15.570Z,20.87
2022-12-11T09:25:17.379Z,20.97
2022-12-11T09:26:20.123Z,22.07
2022-12-11T09:27:22.180Z,23.07
2022-12-11T09:28:24.432Z,20.47
2022-12-11T09:29:26.099Z,21.40
2022-12-11T09:30:27.747Z,25.57
2022-12-11T09:31:31.901Z,22.13
2022-12-11T09:32:33.691Z,21.93
2022-12-11T09:33:35.605Z,21.63
2022-12-11T09:34:37.899Z,21.27
2022-12-11T09:35:39.648Z,20.93
2022-12-11T09:36:44.280Z,21.50
2022-12-11T09:37:46.247Z,24.43
2022-12-11T09:38:48.072Z,23.03
2022-12-11T09:39:49.813Z,23.13
2022-12-11T09:40:51.972Z,25.63
2022-12-11T09:42:17.496Z,22.73
2022-12-11T09:43:42.810Z,23.83
2022-12-11T09:45:00.642Z,24.33
2022-12-11T09:46:07.095Z,25.27
2022-12-11T09:47:21.981Z,23.53
2022-12-11T09:48:26.032Z,21.73
2022-12-11T09:49:43.497Z,24.33
2022-12-11T09:50:48.260Z,23.13
2022-12-11T09:52:13.797Z,24.03
2022-12-11T09:53:21.699Z,23.37
2022-12-11T09:54:23.448Z,21.80
2022-12-11T09:55:30.318Z,22.33
2022-12-11T09:56:32.027Z,23.10
2022-12-11T09:57:57.286Z,22.03
2022-12-11T09:59:36.267Z,23.33
2022-12-11T10:01:22.769Z,20.60
2022-12-11T10:02:49.522Z,21.47
2022-12-11T10:04:00.798Z,21.10
2022-12-11T10:05:30.582Z,20.03
2022-12-11T10:06:48.487Z,23.97
2022-12-11T10:08:08.658Z,19.80
2022-12-11T10:09:59.502Z,19.77
2022-12-11T10:11:29.048Z,22.50
2022-12-11T10:13:05.172Z,20.30
2022-12-11T10:14:14.398Z,19.47
2022-12-11T10:15:24.912Z,20.50
2022-12-11T10:16:43.990Z,18.23
2022-12-11T10:17:46.388Z,22.80
2022-12-11T10:18:49.169Z,23.07
2022-12-11T10:19:51.480Z,21.43
2022-12-11T10:20:54.817Z,18.70
2022-12-11T10:21:57.800Z,20.27
2022-12-11T10:22:59.738Z,22.87
2022-12-11T10:24:04.705Z,21.63
2022-12-11T10:25:12.386Z,19.67
2022-12-11T10:26:20.314Z,21.30
2022-12-11T10:27:26.271Z,22.80
2022-12-11T10:28:28.582Z,20.00
2022-12-11T10:29:30.374Z,25.03
2022-12-11T10:30:38.030Z,21.73
2022-12-11T10:31:58.409Z,22.37
2022-12-11T10:33:21.497Z,21.83
2022-12-11T10:34:36.576Z,20.60
2022-12-11T10:35:50.049Z,22.27
2022-12-11T10:37:00.177Z,21.83
2022-12-11T10:38:11.240Z,24.67
2022-12-11T10:39:15.328Z,22.73
2022-12-11T10:40:18.632Z,22.07
2022-12-11T10:41:37.985Z,21.20
2022-12-11T10:42:44.177Z,20.17
2022-12-11T10:43:52.672Z,21.93
2022-12-11T10:45:03.465Z,20.97
2022-12-11T10:46:06.978Z,22.27
2022-12-11T10:47:14.221Z,18.23
2022-12-11T10:48:15.939Z,21.07
2022-12-11T10:49:26.416Z,20.17
2022-12-11T10:50:28.131Z,22.67
2022-12-11T10:51:32.541Z,22.40
2022-12-11T10:52:38.391Z,19.40
2022-12-11T10:53:40.974Z,21.40
2022-12-11T10:54:47.037Z,21.10
2022-12-11T10:55:49.578Z,23.63
2022-12-11T10:56:51.702Z,22.33
2022-12-11T10:57:59.627Z,23.00
2022-12-11T10:59:01.726Z,23.33
2022-12-11T11:00:06.495Z,23.63
2022-12-11T11:01:16.021Z,21.03
2022-12-11T11:02:47.843Z,21.37
2022-12-11T11:03:55.140Z,29.80
2022-12-11T11:04:59.214Z,22.67
2022-12-11T11:06:17.335Z,19.53
2022-12-11T11:07:26.287Z,22.60
2022-12-11T11:08:28.203Z,21.07
2022-12-11T11:09:31.738Z,20.40
2022-12-11T11:10:33.415Z,24.47
2022-12-11T11:11:38.186Z,21.20
2022-12-11T11:12:48.272Z,22.37
2022-12-11T11:13:50.095Z,22.70
2022-12-11T11:15:10.428Z,22.23
2022-12-11T11:16:15.798Z,21.10
2022-12-11T11:17:17.789Z,18.87
2022-12-11T11:18:28.107Z,23.10
2022-12-11T11:19:33.305Z,21.67
2022-12-11T11:20:35.695Z,21.80
2022-12-11T11:21:37.469Z,23.07
2022-12-11T11:22:44.836Z,22.13
2022-12-11T11:23:51.893Z,19.83
2022-12-11T11:24:57.960Z,23.90
2022-12-11T11:26:01.812Z,20.87
2022-12-11T11:27:20.397Z,21.20
2022-12-11T11:28:37.630Z,20.53
2022-12-11T11:29:39.439Z,21.77
2022-12-11T11:30:42.448Z,21.13
2022-12-11T11:31:44.206Z,19.67
2022-12-11T11:32:46.357Z,21.93
2022-12-11T11:33:51.033Z,21.00
2022-12-11T11:34:52.739Z,21.60
2022-12-11T11:36:01.516Z,23.20
2022-12-11T11:37:05.930Z,21.43
2022-12-11T11:38:18.876Z,22.20
2022-12-11T11:39:32.602Z,19.23
2022-12-11T11:40:49.058Z,23.47
2022-12-11T11:42:01.151Z,21.20
2022-12-11T11:43:28.974Z,20.40
2022-12-11T11:44:42.777Z,23.07
2022-12-11T11:45:47.531Z,19.57
2022-12-11T11:47:27.884Z,22.53
2022-12-11T11:48:48.337Z,23.23
2022-12-11T11:49:59.973Z,21.13
2022-12-11T11:51:13.665Z,23.60
2022-12-11T11:52:30.751Z,19.60
2022-12-11T11:53:37.921Z,21.13
2022-12-11T11:55:02.113Z,21.57
2022-12-11T11:56:17.749Z,21.30
2022-12-11T11:57:37.348Z,23.23
2022-12-11T11:58:56.354Z,20.50
2022-12-11T12:00:17.565Z,18.40
2022-12-11T12:01:20.716Z,20.83
2022-12-11T12:02:22.517Z,20.13
2022-12-11T12:03:25.598Z,20.10
2022-12-11T12:04:33.720Z,21.13
2022-12-11T12:05:52.919Z,20.20
2022-12-11T12:07:24.263Z,21.07
2022-12-11T12:08:57.883Z,19.53
2022-12-11T12:10:33.337Z,20.00
2022-12-11T12:11:54.930Z,19.93
2022-12-11T12:15:05.699Z,21.50
2022-12-11T12:16:52.111Z,21.97
2022-12-11T12:18:02.725Z,20.60
2022-12-11T12:19:34.486Z,18.07
2022-12-11T12:20:43.775Z,20.43
2022-12-11T12:21:50.643Z,20.57
2022-12-11T12:23:25.865Z,20.90
2022-12-11T12:25:02.801Z,19.10
2022-12-11T12:26:12.459Z,16.77
2022-12-11T12:27:51.047Z,20.80
2022-12-11T12:29:29.624Z,18.90
2022-12-11T12:30:38.346Z,22.70
2022-12-11T12:32:07.708Z,19.60
2022-12-11T12:33:45.910Z,19.77
2022-12-11T12:35:09.173Z,21.40
2022-12-11T12:36:26.024Z,18.53
2022-12-11T12:37:43.763Z,19.47
2022-12-11T12:39:27.123Z,20.73
2022-12-11T12:41:03.280Z,20.53
2022-12-11T12:42:27.524Z,19.37
2022-12-11T12:43:44.151Z,21.97
2022-12-11T12:45:03.702Z,19.97
2022-12-11T12:46:10.969Z,19.53
2022-12-11T12:47:17.491Z,21.07
2022-12-11T12:48:20.935Z,20.53
2022-12-11T12:49:44.874Z,20.27
2022-12-11T12:50:49.336Z,19.87
2022-12-11T12:51:51.809Z,17.77
2022-12-11T12:52:55.191Z,21.20
2022-12-11T12:54:00.204Z,20.43
2022-12-11T12:55:24.191Z,19.30
2022-12-11T12:56:29.142Z,18.97
2022-12-11T12:57:32.847Z,21.37
2022-12-11T12:58:34.778Z,21.10
2022-12-11T12:59:36.584Z,21.57
2022-12-11T13:00:43.726Z,19.73
2022-12-11T13:01:49.542Z,21.83
2022-12-11T13:02:53.700Z,21.07
2022-12-11T13:03:57.767Z,21.77
2022-12-11T13:05:05.082Z,21.80
2022-12-11T13:06:09.778Z,20.60
2022-12-11T13:07:29.983Z,30.87
2022-12-11T13:08:42.214Z,30.00
2022-12-11T13:09:44.138Z,24.63
2022-12-11T13:10:45.837Z,21.83
2022-12-11T13:11:53.496Z,20.80
2022-12-11T13:12:56.037Z,23.33
2022-12-11T13:14:15.984Z,21.67
2022-12-11T13:15:37.147Z,19.73
2022-12-11T13:16:41.955Z,20.50
2022-12-11T13:17:43.677Z,24.57
2022-12-11T13:18:48.081Z,21.40
2022-12-11T13:19:57.433Z,22.80
2022-12-11T13:20:59.359Z,21.17
2022-12-11T13:22:20.444Z,20.13
2022-12-11T13:23:33.793Z,19.57
2022-12-11T13:24:47.530Z,22.13
2022-12-11T13:25:55.288Z,21.80
2022-12-11T13:27:08.119Z,20.07
2022-12-11T13:28:32.175Z,21.67
2022-12-11T13:29:42.040Z,20.50
2022-12-11T13:30:43.740Z,20.43
2022-12-11T13:31:56.062Z,20.90
2022-12-11T13:33:15.758Z,20.77
2022-12-11T13:34:21.398Z,20.63
2022-12-11T13:35:23.363Z,19.27
2022-12-11T13:36:32.178Z,22.83
2022-12-11T13:37:39.761Z,19.67
2022-12-11T13:38:48.703Z,20.33
2022-12-11T13:39:51.369Z,19.20
2022-12-11T13:40:56.333Z,20.07
2022-12-11T13:42:03.007Z,19.10
2022-12-11T13:43:20.315Z,21.43
2022-12-11T13:44:26.711Z,19.30
2022-12-11T13:45:50.269Z,20.60
2022-12-11T13:46:55.254Z,21.67
2022-12-11T13:47:58.462Z,21.57
2022-12-11T13:49:02.993Z,19.87
2022-12-11T13:50:37.082Z,19.77
2022-12-11T13:51:38.994Z,20.60
2022-12-11T13:52:40.738Z,21.30
2022-12-11T13:53:42.825Z,18.80
2022-12-11T13:54:50.586Z,21.10
2022-12-11T13:55:58.404Z,22.07
2022-12-11T13:57:04.479Z,21.60
2022-12-11T13:58:19.471Z,19.40
2022-12-11T13:59:26.309Z,23.00
2022-12-11T14:00:32.120Z,21.50
2022-12-11T14:01:34.934Z,22.40
2022-12-11T14:02:40.536Z,20.00
2022-12-11T14:03:57.920Z,21.23
2022-12-11T14:05:06.285Z,22.37
2022-12-11T14:06:18.382Z,23.13
2022-12-11T14:07:26.857Z,20.80
2022-12-11T14:08:35.452Z,21.40
2022-12-11T14:09:45.266Z,23.57
2022-12-11T14:10:54.495Z,20.27
2022-12-11T14:11:57.608Z,22.77
2022-12-11T14:12:59.417Z,22.27
2022-12-11T14:14:03.633Z,22.43
2022-12-11T14:15:05.967Z,20.97
2022-12-11T14:16:08.093Z,26.03
2022-12-11T14:17:23.120Z,21.17
2022-12-11T14:18:28.898Z,22.40
2022-12-11T14:19:30.865Z,24.53